sensor_id;sensor_type;location;lat;lon;timestamp;temperature;humidity
10270;DHT22;70826;50.930;5.334;2023-10-09T00:02:12;26.20;76.40
10270;DHT22;70826;50.930;5.334;2023-10-09T00:04:42;26.20;76.40
10270;DHT22;70826;50.930;5.334;2023-10-09T00:07:13;26.20;76.40
10270;DHT22;70826;50.930;5.334;2023-10-09T00:09:44;26.20;76.40
10270;DHT22;70826;50.930;5.334;2023-10-09T00:12:19;26.20;76.40
10270;DHT22;70826;50.930;5.334;2023-10-09T00:14:48;26.20;76.40
10270;DHT22;70826;50.930;5.334;2023-10-09T00:17:16;26.20;76.40
10270;DHT22;70826;50.930;5.334;2023-10-09T00:19:46;26.20;76.40
10270;DHT22;70826;50.930;5.334;2023-10-09T00:22:18;26.20;76.40
10270;DHT22;70826;50.930;5.334;2023-10-09T00:24:52;26.20;76.40
10270;DHT22;70826;50.930;5.334;2023-10-09T00:27:42;26.20;76.40
10270;DHT22;70826;50.930;5.334;2023-10-09T00:32:36;26.20;76.40
10270;DHT22;70826;50.930;5.334;2023-10-09T00:35:03;26.20;76.40
10270;DHT22;70826;50.930;5.334;2023-10-09T00:37:48;26.20;76.40
10270;DHT22;70826;50.930;5.334;2023-10-09T00:40:30;26.20;76.40
10270;DHT22;70826;50.930;5.334;2023-10-09T00:43:02;26.20;76.40
10270;DHT22;70826;50.930;5.334;2023-10-09T00:45:41;26.20;76.30
10270;DHT22;70826;50.930;5.334;2023-10-09T00:48:12;26.20;76.30
10270;DHT22;70826;50.930;5.334;2023-10-09T00:50:50;26.20;76.30
10270;DHT22;70826;50.930;5.334;2023-10-09T00:53:27;26.20;76.30
10270;DHT22;70826;50.930;5.334;2023-10-09T00:55:58;26.30;76.40
10270;DHT22;70826;50.930;5.334;2023-10-09T00:58:29;26.20;76.30
10270;DHT22;70826;50.930;5.334;2023-10-09T01:00:59;26.20;77.00
10270;DHT22;70826;50.930;5.334;2023-10-09T01:03:25;26.20;77.00
10270;DHT22;70826;50.930;5.334;2023-10-09T01:05:57;26.20;76.30
10270;DHT22;70826;50.930;5.334;2023-10-09T01:08:27;26.20;76.30
10270;DHT22;70826;50.930;5.334;2023-10-09T01:11:02;26.20;76.40
10270;DHT22;70826;50.930;5.334;2023-10-09T01:13:41;26.20;76.40
10270;DHT22;70826;50.930;5.334;2023-10-09T01:16:09;26.20;76.40
10270;DHT22;70826;50.930;5.334;2023-10-09T01:21:09;26.20;76.40
10270;DHT22;70826;50.930;5.334;2023-10-09T01:23:41;26.20;76.30
10270;DHT22;70826;50.930;5.334;2023-10-09T01:26:33;26.20;76.30
10270;DHT22;70826;50.930;5.334;2023-10-09T01:29:17;26.20;76.40
10270;DHT22;70826;50.930;5.334;2023-10-09T01:31:53;26.20;76.40
10270;DHT22;70826;50.930;5.334;2023-10-09T01:34:25;26.20;76.40
10270;DHT22;70826;50.930;5.334;2023-10-09T01:37:12;26.20;76.40
10270;DHT22;70826;50.930;5.334;2023-10-09T01:39:53;26.20;76.40
10270;DHT22;70826;50.930;5.334;2023-10-09T01:42:45;26.20;76.40
10270;DHT22;70826;50.930;5.334;2023-10-09T01:45:13;26.20;76.40
10270;DHT22;70826;50.930;5.334;2023-10-09T01:47:47;26.20;76.40
10270;DHT22;70826;50.930;5.334;2023-10-09T01:50:17;26.20;76.40
10270;DHT22;70826;50.930;5.334;2023-10-09T01:53:04;26.20;76.50
10270;DHT22;70826;50.930;5.334;2023-10-09T01:55:49;26.20;76.50
10270;DHT22;70826;50.930;5.334;2023-10-09T01:58:15;26.20;76.50
10270;DHT22;70826;50.930;5.334;2023-10-09T02:03:24;26.20;76.50
10270;DHT22;70826;50.930;5.334;2023-10-09T02:08:27;26.20;76.50
10270;DHT22;70826;50.930;5.334;2023-10-09T02:10:57;26.20;76.60
10270;DHT22;70826;50.930;5.334;2023-10-09T02:15:58;26.20;76.60
10270;DHT22;70826;50.930;5.334;2023-10-09T02:21:15;26.20;76.60
10270;DHT22;70826;50.930;5.334;2023-10-09T02:26:23;26.20;76.60
10270;DHT22;70826;50.930;5.334;2023-10-09T02:28:58;26.20;76.60
10270;DHT22;70826;50.930;5.334;2023-10-09T02:31:30;26.20;76.60
10270;DHT22;70826;50.930;5.334;2023-10-09T02:34:09;26.20;76.60
10270;DHT22;70826;50.930;5.334;2023-10-09T02:36:36;26.20;76.60
10270;DHT22;70826;50.930;5.334;2023-10-09T02:39:22;26.20;76.60
10270;DHT22;70826;50.930;5.334;2023-10-09T02:42:02;26.20;76.60
10270;DHT22;70826;50.930;5.334;2023-10-09T02:44:49;26.20;76.60
10270;DHT22;70826;50.930;5.334;2023-10-09T02:47:20;26.20;76.60
10270;DHT22;70826;50.930;5.334;2023-10-09T02:49:50;26.20;77.30
10270;DHT22;70826;50.930;5.334;2023-10-09T02:52:16;26.20;76.60
10270;DHT22;70826;50.930;5.334;2023-10-09T02:54:45;26.20;76.60
10270;DHT22;70826;50.930;5.334;2023-10-09T02:57:13;26.20;76.60
10270;DHT22;70826;50.930;5.334;2023-10-09T02:59:48;26.20;76.60
10270;DHT22;70826;50.930;5.334;2023-10-09T03:02:17;26.20;76.60
10270;DHT22;70826;50.930;5.334;2023-10-09T03:04:43;26.20;76.60
10270;DHT22;70826;50.930;5.334;2023-10-09T03:07:09;26.20;76.60
10270;DHT22;70826;50.930;5.334;2023-10-09T03:09:35;26.20;76.70
10270;DHT22;70826;50.930;5.334;2023-10-09T03:12:03;26.20;76.60
10270;DHT22;70826;50.930;5.334;2023-10-09T03:14:31;26.20;76.60
10270;DHT22;70826;50.930;5.334;2023-10-09T03:16:58;26.20;76.70
10270;DHT22;70826;50.930;5.334;2023-10-09T03:19:32;26.20;76.60
10270;DHT22;70826;50.930;5.334;2023-10-09T03:22:07;26.10;76.60
10270;DHT22;70826;50.930;5.334;2023-10-09T03:24:39;26.10;76.60
10270;DHT22;70826;50.930;5.334;2023-10-09T03:27:12;26.10;76.50
10270;DHT22;70826;50.930;5.334;2023-10-09T03:29:41;26.10;76.50
10270;DHT22;70826;50.930;5.334;2023-10-09T03:32:10;26.10;76.50
10270;DHT22;70826;50.930;5.334;2023-10-09T03:34:39;26.10;76.60
10270;DHT22;70826;50.930;5.334;2023-10-09T03:37:06;26.10;76.60
10270;DHT22;70826;50.930;5.334;2023-10-09T03:39:46;26.10;76.60
10270;DHT22;70826;50.930;5.334;2023-10-09T03:42:22;26.10;76.60
10270;DHT22;70826;50.930;5.334;2023-10-09T03:44:49;26.10;76.60
10270;DHT22;70826;50.930;5.334;2023-10-09T03:47:19;26.10;76.60
10270;DHT22;70826;50.930;5.334;2023-10-09T03:49:50;26.10;76.50
10270;DHT22;70826;50.930;5.334;2023-10-09T03:52:21;26.10;76.50
10270;DHT22;70826;50.930;5.334;2023-10-09T03:54:51;26.10;76.60
10270;DHT22;70826;50.930;5.334;2023-10-09T03:57:16;26.10;76.60
10270;DHT22;70826;50.930;5.334;2023-10-09T03:59:47;26.20;76.60
10270;DHT22;70826;50.930;5.334;2023-10-09T04:02:16;26.20;76.60
10270;DHT22;70826;50.930;5.334;2023-10-09T04:04:45;26.20;76.60
10270;DHT22;70826;50.930;5.334;2023-10-09T04:07:15;26.20;76.60
10270;DHT22;70826;50.930;5.334;2023-10-09T04:09:42;26.10;76.50
10270;DHT22;70826;50.930;5.334;2023-10-09T04:12:15;26.10;76.60
10270;DHT22;70826;50.930;5.334;2023-10-09T04:14:50;26.20;76.60
10270;DHT22;70826;50.930;5.334;2023-10-09T04:17:20;26.10;76.50
10270;DHT22;70826;50.930;5.334;2023-10-09T04:19:57;26.10;76.50
10270;DHT22;70826;50.930;5.334;2023-10-09T04:22:41;26.10;76.50
10270;DHT22;70826;50.930;5.334;2023-10-09T04:25:25;26.20;76.60
10270;DHT22;70826;50.930;5.334;2023-10-09T04:27:59;26.10;76.60
10270;DHT22;70826;50.930;5.334;2023-10-09T04:30:38;26.20;76.60
10270;DHT22;70826;50.930;5.334;2023-10-09T04:33:10;26.20;76.60
10270;DHT22;70826;50.930;5.334;2023-10-09T04:36:09;26.10;76.50
10270;DHT22;70826;50.930;5.334;2023-10-09T04:38:43;26.10;76.50
10270;DHT22;70826;50.930;5.334;2023-10-09T04:41:22;26.10;76.40
10270;DHT22;70826;50.930;5.334;2023-10-09T04:43:57;26.10;76.40
10270;DHT22;70826;50.930;5.334;2023-10-09T04:46:44;26.10;76.40
10270;DHT22;70826;50.930;5.334;2023-10-09T04:49:29;26.20;76.50
10270;DHT22;70826;50.930;5.334;2023-10-09T04:51:55;26.10;76.40
10270;DHT22;70826;50.930;5.334;2023-10-09T04:54:46;26.10;76.40
10270;DHT22;70826;50.930;5.334;2023-10-09T04:57:32;26.20;76.50
10270;DHT22;70826;50.930;5.334;2023-10-09T05:00:21;26.10;76.40
10270;DHT22;70826;50.930;5.334;2023-10-09T05:02:53;26.10;76.40
10270;DHT22;70826;50.930;5.334;2023-10-09T05:05:33;26.10;76.40
10270;DHT22;70826;50.930;5.334;2023-10-09T05:08:19;26.10;76.40
10270;DHT22;70826;50.930;5.334;2023-10-09T05:18:43;26.10;77.00
10270;DHT22;70826;50.930;5.334;2023-10-09T05:21:26;26.10;76.40
10270;DHT22;70826;50.930;5.334;2023-10-09T05:23:54;26.10;76.40
10270;DHT22;70826;50.930;5.334;2023-10-09T05:26:49;26.10;76.40
10270;DHT22;70826;50.930;5.334;2023-10-09T05:29:22;26.10;76.30
10270;DHT22;70826;50.930;5.334;2023-10-09T05:31:56;26.10;76.30
10270;DHT22;70826;50.930;5.334;2023-10-09T05:34:28;26.10;76.30
10270;DHT22;70826;50.930;5.334;2023-10-09T05:37:05;26.10;76.30
10270;DHT22;70826;50.930;5.334;2023-10-09T05:39:53;26.10;76.30
10270;DHT22;70826;50.930;5.334;2023-10-09T05:45:06;26.10;76.30
10270;DHT22;70826;50.930;5.334;2023-10-09T05:47:52;26.10;76.30
10270;DHT22;70826;50.930;5.334;2023-10-09T05:50:32;26.10;76.30
10270;DHT22;70826;50.930;5.334;2023-10-09T05:53:01;26.10;76.30
10270;DHT22;70826;50.930;5.334;2023-10-09T05:55:30;26.10;76.30
10270;DHT22;70826;50.930;5.334;2023-10-09T05:57:59;26.10;76.40
10270;DHT22;70826;50.930;5.334;2023-10-09T06:00:38;26.10;76.30
10270;DHT22;70826;50.930;5.334;2023-10-09T06:03:25;26.10;76.20
10270;DHT22;70826;50.930;5.334;2023-10-09T06:05:55;26.10;76.20
10270;DHT22;70826;50.930;5.334;2023-10-09T06:08:30;26.10;76.20
10270;DHT22;70826;50.930;5.334;2023-10-09T06:11:11;26.10;76.20
10270;DHT22;70826;50.930;5.334;2023-10-09T06:14:03;26.10;76.20
10270;DHT22;70826;50.930;5.334;2023-10-09T06:16:31;26.10;76.20
10270;DHT22;70826;50.930;5.334;2023-10-09T06:19:07;26.10;76.20
10270;DHT22;70826;50.930;5.334;2023-10-09T06:21:55;26.10;76.10
10270;DHT22;70826;50.930;5.334;2023-10-09T06:24:30;26.10;76.20
10270;DHT22;70826;50.930;5.334;2023-10-09T06:26:59;26.10;76.20
10270;DHT22;70826;50.930;5.334;2023-10-09T06:29:26;26.10;76.10
10270;DHT22;70826;50.930;5.334;2023-10-09T06:32:05;26.20;76.20
10270;DHT22;70826;50.930;5.334;2023-10-09T06:35:01;26.20;76.20
10270;DHT22;70826;50.930;5.334;2023-10-09T06:37:48;26.10;76.10
10270;DHT22;70826;50.930;5.334;2023-10-09T06:40:30;26.10;76.10
10270;DHT22;70826;50.930;5.334;2023-10-09T06:43:10;26.10;76.10
10270;DHT22;70826;50.930;5.334;2023-10-09T06:45:45;26.10;76.10
10270;DHT22;70826;50.930;5.334;2023-10-09T06:48:26;26.10;76.10
10270;DHT22;70826;50.930;5.334;2023-10-09T06:51:06;26.10;76.10
10270;DHT22;70826;50.930;5.334;2023-10-09T06:53:54;26.10;76.10
10270;DHT22;70826;50.930;5.334;2023-10-09T06:56:29;26.20;76.20
10270;DHT22;70826;50.930;5.334;2023-10-09T06:58:59;26.10;76.10
10270;DHT22;70826;50.930;5.334;2023-10-09T07:01:25;26.10;76.10
10270;DHT22;70826;50.930;5.334;2023-10-09T07:04:07;26.20;76.20
10270;DHT22;70826;50.930;5.334;2023-10-09T07:06:48;26.20;76.40
10270;DHT22;70826;50.930;5.334;2023-10-09T07:09:14;26.10;76.60
10270;DHT22;70826;50.930;5.334;2023-10-09T07:11:45;26.10;76.80
10270;DHT22;70826;50.930;5.334;2023-10-09T07:19:49;26.10;77.40
10270;DHT22;70826;50.930;5.334;2023-10-09T07:22:20;26.10;77.60
10270;DHT22;70826;50.930;5.334;2023-10-09T07:24:55;26.10;77.80
10270;DHT22;70826;50.930;5.334;2023-10-09T07:27:22;26.10;77.90
10270;DHT22;70826;50.930;5.334;2023-10-09T07:30:13;26.10;77.90
10270;DHT22;70826;50.930;5.334;2023-10-09T07:35:42;26.30;78.00
10270;DHT22;70826;50.930;5.334;2023-10-09T07:38:10;26.30;78.00
10270;DHT22;70826;50.930;5.334;2023-10-09T07:40:37;26.30;78.00
10270;DHT22;70826;50.930;5.334;2023-10-09T07:43:29;26.40;78.00
10270;DHT22;70826;50.930;5.334;2023-10-09T07:46:04;26.40;77.90
10270;DHT22;70826;50.930;5.334;2023-10-09T07:48:33;26.50;77.90
10270;DHT22;70826;50.930;5.334;2023-10-09T07:51:15;26.60;78.00
10270;DHT22;70826;50.930;5.334;2023-10-09T07:53:47;26.60;77.90
10270;DHT22;70826;50.930;5.334;2023-10-09T07:56:19;26.70;77.80
10270;DHT22;70826;50.930;5.334;2023-10-09T07:58:48;26.70;77.80
10270;DHT22;70826;50.930;5.334;2023-10-09T08:01:16;26.80;77.80
10270;DHT22;70826;50.930;5.334;2023-10-09T08:03:50;26.80;77.80
10270;DHT22;70826;50.930;5.334;2023-10-09T08:06:24;26.80;77.80
10270;DHT22;70826;50.930;5.334;2023-10-09T08:09:08;26.80;77.70
10270;DHT22;70826;50.930;5.334;2023-10-09T08:11:49;26.90;77.70
10270;DHT22;70826;50.930;5.334;2023-10-09T08:14:35;26.90;77.60
10270;DHT22;70826;50.930;5.334;2023-10-09T08:17:03;27.00;77.60
10270;DHT22;70826;50.930;5.334;2023-10-09T08:19:48;27.00;77.50
10270;DHT22;70826;50.930;5.334;2023-10-09T08:22:27;27.10;77.50
10270;DHT22;70826;50.930;5.334;2023-10-09T08:24:56;27.10;77.40
10270;DHT22;70826;50.930;5.334;2023-10-09T08:27:26;27.20;77.40
10270;DHT22;70826;50.930;5.334;2023-10-09T08:30:17;27.20;77.40
10270;DHT22;70826;50.930;5.334;2023-10-09T08:32:52;27.20;77.30
10270;DHT22;70826;50.930;5.334;2023-10-09T08:35:30;27.30;77.20
10270;DHT22;70826;50.930;5.334;2023-10-09T08:38:01;27.30;77.20
10270;DHT22;70826;50.930;5.334;2023-10-09T08:40:40;27.30;77.20
10270;DHT22;70826;50.930;5.334;2023-10-09T08:45:43;27.30;77.20
10270;DHT22;70826;50.930;5.334;2023-10-09T08:48:11;27.30;77.20
10270;DHT22;70826;50.930;5.334;2023-10-09T08:50:44;27.30;77.20
10270;DHT22;70826;50.930;5.334;2023-10-09T08:53:16;27.30;77.20
10270;DHT22;70826;50.930;5.334;2023-10-09T08:55:43;27.30;77.20
10270;DHT22;70826;50.930;5.334;2023-10-09T08:58:10;27.30;77.20
10270;DHT22;70826;50.930;5.334;2023-10-09T09:00:53;27.30;77.20
10270;DHT22;70826;50.930;5.334;2023-10-09T09:03:21;27.30;77.20
10270;DHT22;70826;50.930;5.334;2023-10-09T09:08:27;27.30;77.30
10270;DHT22;70826;50.930;5.334;2023-10-09T09:10:59;27.30;77.20
10270;DHT22;70826;50.930;5.334;2023-10-09T09:13:43;27.30;77.10
10270;DHT22;70826;50.930;5.334;2023-10-09T09:16:23;27.40;77.80
10270;DHT22;70826;50.930;5.334;2023-10-09T09:18:56;27.30;77.10
10270;DHT22;70826;50.930;5.334;2023-10-09T09:21:36;27.40;77.20
10270;DHT22;70826;50.930;5.334;2023-10-09T09:24:09;27.40;77.10
10270;DHT22;70826;50.930;5.334;2023-10-09T09:26:48;27.40;77.10
10270;DHT22;70826;50.930;5.334;2023-10-09T09:32:03;27.50;76.90
10270;DHT22;70826;50.930;5.334;2023-10-09T09:34:46;27.50;76.70
10270;DHT22;70826;50.930;5.334;2023-10-09T09:37:22;27.50;76.60
10270;DHT22;70826;50.930;5.334;2023-10-09T09:40:01;27.50;76.40
10270;DHT22;70826;50.930;5.334;2023-10-09T09:42:42;27.50;76.40
10270;DHT22;70826;50.930;5.334;2023-10-09T09:45:13;27.50;76.30
10270;DHT22;70826;50.930;5.334;2023-10-09T09:47:41;27.50;76.20
10270;DHT22;70826;50.930;5.334;2023-10-09T09:50:12;27.50;76.10
10270;DHT22;70826;50.930;5.334;2023-10-09T09:52:50;27.50;76.00
10270;DHT22;70826;50.930;5.334;2023-10-09T09:55:19;27.50;76.10
10270;DHT22;70826;50.930;5.334;2023-10-09T09:57:48;27.40;75.90
10270;DHT22;70826;50.930;5.334;2023-10-09T10:00:20;27.40;75.90
10270;DHT22;70826;50.930;5.334;2023-10-09T10:03:01;27.40;75.90
10270;DHT22;70826;50.930;5.334;2023-10-09T10:05:32;27.30;75.90
10270;DHT22;70826;50.930;5.334;2023-10-09T10:07:59;27.30;75.90
10270;DHT22;70826;50.930;5.334;2023-10-09T10:10:41;27.30;75.90
10270;DHT22;70826;50.930;5.334;2023-10-09T10:13:54;27.30;76.00
10270;DHT22;70826;50.930;5.334;2023-10-09T10:16:11;27.30;75.90
10270;DHT22;70826;50.930;5.334;2023-10-09T10:21:49;27.20;75.90
10270;DHT22;70826;50.930;5.334;2023-10-09T10:29:43;27.10;75.90
10270;DHT22;70826;50.930;5.334;2023-10-09T10:32:15;27.10;75.90
10270;DHT22;70826;50.930;5.334;2023-10-09T10:34:53;27.10;75.90
10270;DHT22;70826;50.930;5.334;2023-10-09T10:37:37;27.10;76.00
10270;DHT22;70826;50.930;5.334;2023-10-09T10:40:09;27.00;75.90
10270;DHT22;70826;50.930;5.334;2023-10-09T10:43:00;27.00;75.90
10270;DHT22;70826;50.930;5.334;2023-10-09T10:45:38;27.00;75.90
10270;DHT22;70826;50.930;5.334;2023-10-09T10:48:10;27.00;75.90
10270;DHT22;70826;50.930;5.334;2023-10-09T10:50:49;27.00;75.90
10270;DHT22;70826;50.930;5.334;2023-10-09T10:53:22;27.00;75.90
10270;DHT22;70826;50.930;5.334;2023-10-09T10:56:00;27.00;76.00
10270;DHT22;70826;50.930;5.334;2023-10-09T10:58:38;26.90;76.00
10270;DHT22;70826;50.930;5.334;2023-10-09T11:01:04;26.90;76.00
10270;DHT22;70826;50.930;5.334;2023-10-09T11:03:41;26.90;76.10
10270;DHT22;70826;50.930;5.334;2023-10-09T11:06:30;26.90;76.00
10270;DHT22;70826;50.930;5.334;2023-10-09T11:09:07;26.80;76.00
10270;DHT22;70826;50.930;5.334;2023-10-09T11:11:50;26.80;76.10
10270;DHT22;70826;50.930;5.334;2023-10-09T11:14:45;26.80;76.10
10270;DHT22;70826;50.930;5.334;2023-10-09T11:17:16;26.80;76.10
10270;DHT22;70826;50.930;5.334;2023-10-09T11:19:53;26.80;76.20
10270;DHT22;70826;50.930;5.334;2023-10-09T11:22:19;26.80;76.20
10270;DHT22;70826;50.930;5.334;2023-10-09T11:24:54;26.80;76.20
10270;DHT22;70826;50.930;5.334;2023-10-09T11:27:40;26.80;76.20
10270;DHT22;70826;50.930;5.334;2023-10-09T11:30:18;26.80;76.30
10270;DHT22;70826;50.930;5.334;2023-10-09T11:33:06;26.70;76.20
10270;DHT22;70826;50.930;5.334;2023-10-09T11:35:42;26.70;76.20
10270;DHT22;70826;50.930;5.334;2023-10-09T11:38:22;26.70;76.20
10270;DHT22;70826;50.930;5.334;2023-10-09T11:40:48;26.70;76.10
10270;DHT22;70826;50.930;5.334;2023-10-09T11:43:22;26.70;76.10
10270;DHT22;70826;50.930;5.334;2023-10-09T11:46:13;26.70;76.20
10270;DHT22;70826;50.930;5.334;2023-10-09T11:49:09;26.70;76.20
10270;DHT22;70826;50.930;5.334;2023-10-09T11:51:51;26.70;76.20
10270;DHT22;70826;50.930;5.334;2023-10-09T11:54:58;26.70;76.20
10270;DHT22;70826;50.930;5.334;2023-10-09T11:57:28;26.70;76.20
10270;DHT22;70826;50.930;5.334;2023-10-09T11:59:59;26.70;76.30
10270;DHT22;70826;50.930;5.334;2023-10-09T12:02:28;26.70;76.20
10270;DHT22;70826;50.930;5.334;2023-10-09T12:04:53;26.60;76.20
10270;DHT22;70826;50.930;5.334;2023-10-09T12:07:22;26.70;76.30
10270;DHT22;70826;50.930;5.334;2023-10-09T12:09:51;26.60;76.20
10270;DHT22;70826;50.930;5.334;2023-10-09T12:12:21;26.60;76.20
10270;DHT22;70826;50.930;5.334;2023-10-09T12:14:56;26.60;76.20
10270;DHT22;70826;50.930;5.334;2023-10-09T12:17:24;26.60;76.30
10270;DHT22;70826;50.930;5.334;2023-10-09T12:19:51;26.60;76.30
10270;DHT22;70826;50.930;5.334;2023-10-09T12:22:16;26.60;76.30
10270;DHT22;70826;50.930;5.334;2023-10-09T12:24:49;26.60;76.30
10270;DHT22;70826;50.930;5.334;2023-10-09T12:27:17;26.60;76.50
10270;DHT22;70826;50.930;5.334;2023-10-09T12:29:48;26.60;76.30
10270;DHT22;70826;50.930;5.334;2023-10-09T12:32:18;26.60;76.30
10270;DHT22;70826;50.930;5.334;2023-10-09T12:34:48;26.60;76.40
10270;DHT22;70826;50.930;5.334;2023-10-09T12:37:18;26.60;76.40
10270;DHT22;70826;50.930;5.334;2023-10-09T12:39:48;26.60;76.40
10270;DHT22;70826;50.930;5.334;2023-10-09T12:42:21;26.60;76.40
10270;DHT22;70826;50.930;5.334;2023-10-09T12:44:52;26.50;76.30
10270;DHT22;70826;50.930;5.334;2023-10-09T12:47:20;26.50;76.40
10270;DHT22;70826;50.930;5.334;2023-10-09T12:49:48;26.50;76.40
10270;DHT22;70826;50.930;5.334;2023-10-09T12:52:21;26.50;76.40
10270;DHT22;70826;50.930;5.334;2023-10-09T12:54:55;26.50;76.40
10270;DHT22;70826;50.930;5.334;2023-10-09T12:57:22;26.50;76.40
10270;DHT22;70826;50.930;5.334;2023-10-09T12:59:49;26.50;76.40
10270;DHT22;70826;50.930;5.334;2023-10-09T13:02:15;26.50;76.40
10270;DHT22;70826;50.930;5.334;2023-10-09T13:05:01;26.50;76.40
10270;DHT22;70826;50.930;5.334;2023-10-09T13:07:33;26.50;76.40
10270;DHT22;70826;50.930;5.334;2023-10-09T13:10:04;26.50;76.50
10270;DHT22;70826;50.930;5.334;2023-10-09T13:12:43;26.50;76.50
10270;DHT22;70826;50.930;5.334;2023-10-09T13:15:14;26.50;76.50
10270;DHT22;70826;50.930;5.334;2023-10-09T13:17:44;26.50;76.50
10270;DHT22;70826;50.930;5.334;2023-10-09T13:20:14;26.50;76.50
10270;DHT22;70826;50.930;5.334;2023-10-09T13:22:47;26.50;76.50
10270;DHT22;70826;50.930;5.334;2023-10-09T13:25:18;26.50;76.50
10270;DHT22;70826;50.930;5.334;2023-10-09T13:27:52;26.50;76.50
10270;DHT22;70826;50.930;5.334;2023-10-09T13:30:18;26.50;76.60
10270;DHT22;70826;50.930;5.334;2023-10-09T13:32:50;26.50;76.60
10270;DHT22;70826;50.930;5.334;2023-10-09T13:35:19;26.50;76.60
10270;DHT22;70826;50.930;5.334;2023-10-09T13:38:05;26.50;76.60
10270;DHT22;70826;50.930;5.334;2023-10-09T13:40:37;26.50;76.60
10270;DHT22;70826;50.930;5.334;2023-10-09T13:43:03;26.50;76.60
10270;DHT22;70826;50.930;5.334;2023-10-09T13:45:38;26.50;76.60
10270;DHT22;70826;50.930;5.334;2023-10-09T13:48:03;26.50;76.60
10270;DHT22;70826;50.930;5.334;2023-10-09T13:50:36;26.50;76.60
10270;DHT22;70826;50.930;5.334;2023-10-09T13:53:10;26.50;76.70
10270;DHT22;70826;50.930;5.334;2023-10-09T13:55:38;26.50;76.70
10270;DHT22;70826;50.930;5.334;2023-10-09T13:58:09;26.50;76.70
10270;DHT22;70826;50.930;5.334;2023-10-09T14:00:41;26.40;76.60
10270;DHT22;70826;50.930;5.334;2023-10-09T14:03:11;26.40;76.60
10270;DHT22;70826;50.930;5.334;2023-10-09T14:05:40;26.40;76.60
10270;DHT22;70826;50.930;5.334;2023-10-09T14:08:23;26.40;76.60
10270;DHT22;70826;50.930;5.334;2023-10-09T14:10:52;26.40;76.60
10270;DHT22;70826;50.930;5.334;2023-10-09T14:13:20;26.50;76.70
10270;DHT22;70826;50.930;5.334;2023-10-09T14:15:53;26.50;76.70
10270;DHT22;70826;50.930;5.334;2023-10-09T14:18:22;26.40;76.60
10270;DHT22;70826;50.930;5.334;2023-10-09T14:20:50;26.40;76.60
10270;DHT22;70826;50.930;5.334;2023-10-09T14:23:21;26.50;76.70
10270;DHT22;70826;50.930;5.334;2023-10-09T14:25:49;26.40;76.60
10270;DHT22;70826;50.930;5.334;2023-10-09T14:28:15;26.50;76.70
10270;DHT22;70826;50.930;5.334;2023-10-09T14:30:44;26.40;76.70
10270;DHT22;70826;50.930;5.334;2023-10-09T14:33:21;26.40;76.60
10270;DHT22;70826;50.930;5.334;2023-10-09T14:35:50;26.40;76.70
10270;DHT22;70826;50.930;5.334;2023-10-09T14:38:21;26.40;76.70
10270;DHT22;70826;50.930;5.334;2023-10-09T14:40:55;26.40;76.70
10270;DHT22;70826;50.930;5.334;2023-10-09T14:43:24;26.40;76.60
10270;DHT22;70826;50.930;5.334;2023-10-09T14:45:54;26.40;76.60
10270;DHT22;70826;50.930;5.334;2023-10-09T14:48:20;26.50;76.70
10270;DHT22;70826;50.930;5.334;2023-10-09T14:50:55;26.40;76.70
10270;DHT22;70826;50.930;5.334;2023-10-09T14:53:30;26.40;76.60
10270;DHT22;70826;50.930;5.334;2023-10-09T14:56:04;26.40;76.70
10270;DHT22;70826;50.930;5.334;2023-10-09T14:58:36;26.40;76.70
10270;DHT22;70826;50.930;5.334;2023-10-09T15:01:08;26.40;76.70
10270;DHT22;70826;50.930;5.334;2023-10-09T15:03:38;26.40;76.80
10270;DHT22;70826;50.930;5.334;2023-10-09T15:06:04;26.40;76.70
10270;DHT22;70826;50.930;5.334;2023-10-09T15:08:34;26.40;76.70
10270;DHT22;70826;50.930;5.334;2023-10-09T15:11:05;26.40;76.80
10270;DHT22;70826;50.930;5.334;2023-10-09T15:13:36;26.40;76.80
10270;DHT22;70826;50.930;5.334;2023-10-09T15:16:05;26.40;76.70
10270;DHT22;70826;50.930;5.334;2023-10-09T15:18:30;26.40;76.70
10270;DHT22;70826;50.930;5.334;2023-10-09T15:20:59;26.40;76.80
10270;DHT22;70826;50.930;5.334;2023-10-09T15:23:29;26.40;76.80
10270;DHT22;70826;50.930;5.334;2023-10-09T15:25:57;26.40;76.80
10270;DHT22;70826;50.930;5.334;2023-10-09T15:28:28;26.40;76.80
10270;DHT22;70826;50.930;5.334;2023-10-09T15:31:00;26.40;76.80
10270;DHT22;70826;50.930;5.334;2023-10-09T15:33:30;26.40;76.80
10270;DHT22;70826;50.930;5.334;2023-10-09T15:35:58;26.40;76.80
10270;DHT22;70826;50.930;5.334;2023-10-09T15:38:26;26.40;76.90
10270;DHT22;70826;50.930;5.334;2023-10-09T15:40:56;26.40;76.90
10270;DHT22;70826;50.930;5.334;2023-10-09T15:43:26;26.40;76.90
10270;DHT22;70826;50.930;5.334;2023-10-09T15:45:52;26.40;76.90
10270;DHT22;70826;50.930;5.334;2023-10-09T15:48:28;26.40;76.90
10270;DHT22;70826;50.930;5.334;2023-10-09T15:51:00;26.40;76.90
10270;DHT22;70826;50.930;5.334;2023-10-09T15:53:25;26.40;76.90
10270;DHT22;70826;50.930;5.334;2023-10-09T15:55:56;26.40;76.90
10270;DHT22;70826;50.930;5.334;2023-10-09T15:58:25;26.40;77.00
10270;DHT22;70826;50.930;5.334;2023-10-09T16:00:53;26.40;77.00
10270;DHT22;70826;50.930;5.334;2023-10-09T16:03:18;26.40;77.00
10270;DHT22;70826;50.930;5.334;2023-10-09T16:05:44;26.40;77.00
10270;DHT22;70826;50.930;5.334;2023-10-09T16:08:12;26.40;77.00
10270;DHT22;70826;50.930;5.334;2023-10-09T16:10:38;26.40;77.00
10270;DHT22;70826;50.930;5.334;2023-10-09T16:13:04;26.40;77.00
10270;DHT22;70826;50.930;5.334;2023-10-09T16:15:30;26.40;77.10
10270;DHT22;70826;50.930;5.334;2023-10-09T16:18:00;26.40;77.10
10270;DHT22;70826;50.930;5.334;2023-10-09T16:20:31;26.40;77.10
10270;DHT22;70826;50.930;5.334;2023-10-09T16:23:03;26.40;77.00
10270;DHT22;70826;50.930;5.334;2023-10-09T16:25:30;26.40;77.00
10270;DHT22;70826;50.930;5.334;2023-10-09T16:28:01;26.40;77.10
10270;DHT22;70826;50.930;5.334;2023-10-09T16:30:30;26.40;77.10
10270;DHT22;70826;50.930;5.334;2023-10-09T16:32:58;26.40;77.10
10270;DHT22;70826;50.930;5.334;2023-10-09T16:35:25;26.30;77.10
10270;DHT22;70826;50.930;5.334;2023-10-09T16:37:51;26.40;77.30
10270;DHT22;70826;50.930;5.334;2023-10-09T16:40:19;26.40;77.20
10270;DHT22;70826;50.930;5.334;2023-10-09T16:42:46;26.30;77.10
10270;DHT22;70826;50.930;5.334;2023-10-09T16:45:15;26.30;77.10
10270;DHT22;70826;50.930;5.334;2023-10-09T16:47:49;26.40;77.20
10270;DHT22;70826;50.930;5.334;2023-10-09T16:50:20;26.30;77.10
10270;DHT22;70826;50.930;5.334;2023-10-09T16:52:51;26.40;77.20
10270;DHT22;70826;50.930;5.334;2023-10-09T16:55:17;26.40;77.20
10270;DHT22;70826;50.930;5.334;2023-10-09T16:57:46;26.40;77.20
10270;DHT22;70826;50.930;5.334;2023-10-09T17:00:21;26.30;77.20
10270;DHT22;70826;50.930;5.334;2023-10-09T17:03:02;26.30;77.20
10270;DHT22;70826;50.930;5.334;2023-10-09T17:05:35;26.40;77.30